createdAt,value
2023-03-18T00:04:46.673Z,10.90
2023-03-18T00:10:51.286Z,11.00
2023-03-18T00:16:53.195Z,11.00
2023-03-18T00:22:57.488Z,11.00
2023-03-18T00:29:00.006Z,10.90
2023-03-18T00:35:04.000Z,10.80
2023-03-18T00:41:12.177Z,10.50
2023-03-18T00:47:14.122Z,10.40
2023-03-18T00:53:17.229Z,10.20
2023-03-18T00:59:19.322Z,10.10
2023-03-18T01:05:21.835Z,10.30
2023-03-18T01:11:24.614Z,10.40
2023-03-18T01:17:27.340Z,10.40
2023-03-18T01:23:30.267Z,10.30
2023-03-18T01:29:32.187Z,10.30
2023-03-18T01:35:37.758Z,10.40
2023-03-18T01:41:40.277Z,10.40
2023-03-18T01:47:44.710Z,10.50
2023-03-18T01:53:50.644Z,10.60
2023-03-18T01:59:55.618Z,10.70
2023-03-18T02:05:57.903Z,10.80
2023-03-18T02:12:03.779Z,10.80
2023-03-18T02:18:30.913Z,10.80
2023-03-18T02:24:58.617Z,10.80
2023-03-18T02:31:05.173Z,10.70
2023-03-18T02:37:08.062Z,10.60
2023-03-18T02:43:32.873Z,10.50
2023-03-18T02:49:34.953Z,10.50
2023-03-18T02:55:36.844Z,10.60
2023-03-18T03:01:40.138Z,10.60
2023-03-18T03:07:42.440Z,10.60
2023-03-18T03:13:47.542Z,10.50
2023-03-18T03:19:49.522Z,10.50
2023-03-18T03:25:51.430Z,10.50
2023-03-18T03:31:53.343Z,10.30
2023-03-18T03:37:55.291Z,10.20
2023-03-18T03:43:57.196Z,10.10
2023-03-18T03:49:59.357Z,9.90
2023-03-18T03:56:01.364Z,9.70
2023-03-18T04:02:03.706Z,9.60
2023-03-18T04:08:06.562Z,9.50
2023-03-18T04:14:09.178Z,9.30
2023-03-18T04:20:12.179Z,9.20
2023-03-18T04:26:14.138Z,9.20
2023-03-18T04:32:16.041Z,9.10
2023-03-18T04:38:18.026Z,9.10
2023-03-18T04:44:20.972Z,9.10
2023-03-18T04:50:24.008Z,9.20
2023-03-18T04:56:26.271Z,9.20
2023-03-18T05:02:28.169Z,9.20
2023-03-18T05:08:30.101Z,9.20
2023-03-18T05:14:32.067Z,9.10
2023-03-18T05:20:34.275Z,9.00
2023-03-18T05:26:36.221Z,8.90
2023-03-18T05:32:38.867Z,8.90
2023-03-18T05:38:40.841Z,8.90
2023-03-18T05:44:42.960Z,8.70
2023-03-18T05:50:45.130Z,8.70
2023-03-18T05:56:47.118Z,8.80
2023-03-18T06:02:49.659Z,8.90
2023-03-18T06:08:58.518Z,9.00
2023-03-18T06:15:00.605Z,9.10
2023-03-18T06:21:02.526Z,9.10
2023-03-18T06:27:04.557Z,9.00
2023-03-18T06:33:06.500Z,9.10
2023-03-18T06:39:08.499Z,9.20
2023-03-18T06:45:11.959Z,9.40
2023-03-18T06:51:13.892Z,9.60
2023-03-18T06:57:16.008Z,11.60
2023-03-18T07:03:17.962Z,13.80
2023-03-18T07:09:20.221Z,15.30
2023-03-18T07:15:23.937Z,15.10
2023-03-18T07:21:26.497Z,14.10
2023-03-18T07:27:28.981Z,13.30
2023-03-18T07:33:30.887Z,13.10
2023-03-18T07:39:33.648Z,14.40
2023-03-18T07:45:35.618Z,15.40
2023-03-18T07:51:37.925Z,14.40
2023-03-18T07:57:39.946Z,14.00
2023-03-18T08:03:43.659Z,13.80
2023-03-18T08:09:45.653Z,13.60
2023-03-18T08:15:48.680Z,13.90
2023-03-18T08:21:50.589Z,14.40
2023-03-18T08:27:53.491Z,15.00
2023-03-18T08:33:56.935Z,15.80
2023-03-18T08:39:58.892Z,16.50
2023-03-18T08:46:00.846Z,17.30
2023-03-18T08:52:03.858Z,18.70
2023-03-18T08:58:07.518Z,19.90
2023-03-18T09:04:09.480Z,20.70
2023-03-18T09:10:14.325Z,21.60
2023-03-18T09:16:17.273Z,22.50
2023-03-18T09:22:19.298Z,23.30
2023-03-18T09:28:21.442Z,22.90
2023-03-18T09:34:23.513Z,21.50
2023-03-18T09:40:29.525Z,21.70
2023-03-18T09:47:04.421Z,21.10
2023-03-18T09:53:27.577Z,19.90
2023-03-18T10:00:09.127Z,21.00
2023-03-18T10:06:20.503Z,21.30
2023-03-18T10:12:35.837Z,23.40
2023-03-18T10:18:42.080Z,22.10
2023-03-18T10:25:23.789Z,19.90
2023-03-18T10:31:40.679Z,21.40
2023-03-18T10:38:05.577Z,21.60
2023-03-18T10:44:26.756Z,20.70
2023-03-18T10:50:56.852Z,18.80
2023-03-18T10:56:59.144Z,17.70
2023-03-18T11:03:04.233Z,18.20
2023-03-18T11:09:13.177Z,17.50
2023-03-18T11:15:20.449Z,18.00
2023-03-18T11:21:24.598Z,17.80
2023-03-18T11:27:38.681Z,17.70
2023-03-18T11:33:40.864Z,19.60
2023-03-18T11:39:43.365Z,19.00
2023-03-18T11:45:54.426Z,19.10
2023-03-18T11:52:22.656Z,18.30
2023-03-18T11:59:00.613Z,19.40
2023-03-18T12:05:41.762Z,19.70
2023-03-18T12:12:27.872Z,19.70
2023-03-18T12:19:15.824Z,19.60
2023-03-18T12:25:30.648Z,18.90
2023-03-18T12:32:05.281Z,19.50
2023-03-18T12:39:06.519Z,20.50
2023-03-18T12:45:20.578Z,21.80
2023-03-18T12:51:29.113Z,23.30
2023-03-18T12:57:59.514Z,22.30
2023-03-18T13:04:18.718Z,22.50
2023-03-18T13:10:24.263Z,21.80
2023-03-18T13:16:29.329Z,22.80
2023-03-18T13:23:20.694Z,22.20
2023-03-18T13:30:22.169Z,21.40
2023-03-18T13:36:41.689Z,21.90
2023-03-18T13:42:45.717Z,23.10
2023-03-18T13:48:48.175Z,24.80
2023-03-18T13:54:50.263Z,25.50
2023-03-18T14:00:54.936Z,25.90
2023-03-18T14:07:14.544Z,26.00
2023-03-18T14:13:28.210Z,24.60
2023-03-18T14:19:34.354Z,22.30
2023-03-18T14:25:44.177Z,21.80
2023-03-18T14:32:01.037Z,21.50
2023-03-18T14:38:55.435Z,20.90
2023-03-18T14:45:26.203Z,20.50
2023-03-18T14:51:31.640Z,20.70
2023-03-18T14:57:33.723Z,20.50
2023-03-18T15:03:38.567Z,20.30
2023-03-18T15:09:44.589Z,19.90
2023-03-18T15:15:47.089Z,20.30
2023-03-18T15:21:50.197Z,19.90
2023-03-18T15:27:55.289Z,19.10
2023-03-18T15:34:30.604Z,19.00
2023-03-18T15:40:47.352Z,19.10
2023-03-18T15:46:49.958Z,19.00
2023-03-18T15:53:20.884Z,18.90
2023-03-18T15:59:32.394Z,18.90
2023-03-18T16:05:34.591Z,18.90
2023-03-18T16:11:36.919Z,18.90
2023-03-18T16:17:38.906Z,19.20
2023-03-18T16:23:41.550Z,21.10
2023-03-18T16:29:43.565Z,21.70
2023-03-18T16:35:58.627Z,23.40
2023-03-18T16:42:04.310Z,25.10
2023-03-18T16:48:07.564Z,25.80
2023-03-18T16:54:32.445Z,24.80
2023-03-18T17:00:34.339Z,22.90
2023-03-18T17:06:36.608Z,21.00
2023-03-18T17:12:39.965Z,18.80
2023-03-18T17:18:41.862Z,17.10
2023-03-18T17:24:43.752Z,15.60
2023-03-18T17:30:45.916Z,14.70
2023-03-18T17:36:48.473Z,14.00
2023-03-18T17:42:52.379Z,13.50
2023-03-18T17:48:55.058Z,13.20
2023-03-18T17:54:57.248Z,13.10
2023-03-18T18:01:15.496Z,12.90
2023-03-18T18:07:21.847Z,12.90
2023-03-18T18:13:23.951Z,12.90
2023-03-18T18:19:27.049Z,13.00
2023-03-18T18:25:30.283Z,13.10
2023-03-18T18:31:34.484Z,13.10
2023-03-18T18:37:36.421Z,13.20
2023-03-18T18:43:38.372Z,13.20
2023-03-18T18:49:40.923Z,13.30
2023-03-18T18:55:43.032Z,13.20
2023-03-18T19:01:44.970Z,13.20
2023-03-18T19:07:47.028Z,13.20
2023-03-18T19:13:48.961Z,13.10
2023-03-18T19:19:52.787Z,13.00
2023-03-18T19:25:56.872Z,12.90
2023-03-18T19:32:01.262Z,12.80
2023-03-18T19:38:03.295Z,12.60
2023-03-18T19:44:21.618Z,12.60
2023-03-18T19:50:23.554Z,12.60
2023-03-18T19:56:28.908Z,12.40
2023-03-18T20:02:33.922Z,12.30
2023-03-18T20:08:36.268Z,12.30
2023-03-18T20:14:39.140Z,12.30
2023-03-18T20:20:51.150Z,12.40
2023-03-18T20:26:53.067Z,12.40
2023-03-18T20:32:56.101Z,12.40
2023-03-18T20:38:58.238Z,12.40
2023-03-18T20:45:00.410Z,12.50
2023-03-18T20:51:03.332Z,12.60
2023-03-18T20:57:05.217Z,12.60
2023-03-18T21:03:27.848Z,12.60
2023-03-18T21:09:29.785Z,12.60
2023-03-18T21:15:32.769Z,12.40
2023-03-18T21:21:38.735Z,12.40
2023-03-18T21:27:40.772Z,12.30
2023-03-18T21:33:45.041Z,12.20
2023-03-18T21:39:47.383Z,12.10
2023-03-18T21:45:50.460Z,12.00
2023-03-18T21:51:52.688Z,12.00
2023-03-18T21:57:54.682Z,12.00
2023-03-18T22:03:56.624Z,12.00
2023-03-18T22:09:58.767Z,11.90
2023-03-18T22:16:00.871Z,11.80
2023-03-18T22:22:02.905Z,11.80
2023-03-18T22:28:05.635Z,11.80
2023-03-18T22:34:23.540Z,11.80
2023-03-18T22:40:29.370Z,11.70
2023-03-18T22:46:32.017Z,11.60
2023-03-18T22:52:34.052Z,11.50
2023-03-18T22:58:36.343Z,11.50
2023-03-18T23:04:38.208Z,11.40
2023-03-18T23:10:41.923Z,11.40
2023-03-18T23:16:43.865Z,11.40
2023-03-18T23:22:46.186Z,11.40
2023-03-18T23:28:49.073Z,11.40
2023-03-18T23:34:51.031Z,11.40
2023-03-18T23:40:52.940Z,11.40
2023-03-18T23:46:54.897Z,11.30
2023-03-18T23:52:56.933Z,11.30
2023-03-18T23:58:58.977Z,11.20
